Time;durP1;ratioP1;P1;durP2;ratioP2;P2;SDS_P1;SDS_P2;PMS_P1;PMS_P2;Temp;Humidity;BMP_temperature;BMP_pressure;BME280_temperature;BME280_humidity;BME280_pressure;Samples;Min_cycle;Max_cycle;Signal;HPM_P1;HPM_P2
2021/08/23 00:00:29;;;;;;;2.75;2.20;;;;;;;18.56;81.57;96032.50;5033320;28;20201;-86
2021/08/23 00:02:56;;;;;;;2.20;2.00;;;;;;;18.55;82.00;96023.09;5033673;28;20205;-86
2021/08/23 00:05:22;;;;;;;2.83;2.00;;;;;;;18.48;82.56;96030.16;5033021;28;20226;-83
2021/08/23 00:07:49;;;;;;;2.72;1.90;;;;;;;18.50;81.86;96021.13;5033014;28;20209;-83
2021/08/23 00:10:15;;;;;;;2.92;1.88;;;;;;;18.52;81.34;96015.69;5033037;28;20206;-85
2021/08/23 00:12:43;;;;;;;2.00;1.88;;;;;;;18.54;81.09;96021.50;5032473;28;20213;-83
2021/08/23 00:15:10;;;;;;;2.58;1.90;;;;;;;18.57;80.98;96021.88;5032874;28;20225;-85
2021/08/23 00:17:37;;;;;;;3.35;2.10;;;;;;;18.54;80.00;96024.91;5032436;28;20214;-87
2021/08/23 00:20:04;;;;;;;3.63;2.47;;;;;;;18.52;79.79;96026.91;5031886;28;20202;-83
2021/08/23 00:22:47;;;;;;;2.22;1.83;;;;;;;18.54;80.28;96024.91;5032426;28;20212;-86
2021/08/23 00:25:14;;;;;;;1.90;1.80;;;;;;;18.47;79.48;96023.38;5032189;28;20283;-87
2021/08/23 00:27:40;;;;;;;1.98;1.88;;;;;;;18.44;79.70;96019.38;5032026;28;20662;-86
2021/08/23 00:30:10;;;;;;;2.92;2.08;;;;;;;18.46;80.35;96022.59;5032234;28;20213;-87
2021/08/23 00:32:37;;;;;;;2.55;1.90;;;;;;;18.53;79.80;96025.91;5032204;28;20874;-86
2021/08/23 00:35:03;;;;;;;1.98;1.77;;;;;;;18.52;79.97;96013.09;5030925;28;20218;-86
2021/08/23 00:37:30;;;;;;;2.55;2.35;;;;;;;18.50;79.74;96028.94;5032092;28;20585;-84
2021/08/23 00:39:56;;;;;;;2.95;2.10;;;;;;;18.48;79.18;96020.53;5031527;28;20198;-84
2021/08/23 00:42:23;;;;;;;4.05;2.03;;;;;;;18.52;79.16;96019.09;5032154;28;20198;-84
2021/08/23 00:44:50;;;;;;;2.30;2.00;;;;;;;18.52;78.91;96016.50;5032404;28;20237;-83
2021/08/23 00:47:17;;;;;;;2.53;2.13;;;;;;;18.49;78.60;96013.50;5032618;28;20284;-83
2021/08/23 00:49:44;;;;;;;1.98;1.88;;;;;;;18.46;78.31;96012.16;5032873;28;20202;-86
2021/08/23 00:52:11;;;;;;;3.47;2.20;;;;;;;18.42;79.13;96010.97;5032670;28;20253;-86
2021/08/23 00:54:38;;;;;;;4.07;2.47;;;;;;;18.32;79.29;96010.66;5032280;28;20721;-86
2021/08/23 00:57:06;;;;;;;2.88;2.20;;;;;;;18.25;80.81;96015.16;5031505;28;20204;-84
2021/08/23 00:59:35;;;;;;;2.33;2.13;;;;;;;18.21;80.59;96011.38;5031885;28;20297;-83
2021/08/23 01:02:08;;;;;;;4.88;2.10;;;;;;;18.29;80.05;96019.69;5031506;28;20386;-86
2021/08/23 01:04:43;;;;;;;2.20;1.95;;;;;;;18.29;79.75;96011.09;5030899;28;20221;-84
2021/08/23 01:07:13;;;;;;;2.70;2.30;;;;;;;18.29;80.15;96014.50;5031009;28;20225;-84
2021/08/23 01:09:43;;;;;;;3.55;2.33;;;;;;;18.32;79.44;96007.25;5031430;28;20198;-84
2021/08/23 01:12:12;;;;;;;2.28;2.08;;;;;;;18.25;79.31;96009.94;5031754;28;20206;-86
2021/08/23 01:14:38;;;;;;;4.68;2.05;;;;;;;18.29;79.22;96008.47;5031354;28;20226;-84
2021/08/23 01:17:06;;;;;;;2.85;2.33;;;;;;;18.36;78.88;96008.41;5031550;28;20202;-86
2021/08/23 01:19:33;;;;;;;2.50;2.15;;;;;;;18.33;78.42;96008.84;5030065;28;20205;-86
2021/08/23 01:22:04;;;;;;;2.13;1.95;;;;;;;18.32;78.31;96007.25;5030587;28;20252;-87
2021/08/23 01:24:33;;;;;;;2.65;1.95;;;;;;;18.31;78.17;96011.66;5029771;28;20609;-83
2021/08/23 01:27:02;;;;;;;3.47;2.40;;;;;;;18.30;78.33;96010.06;5029965;28;20210;-84
2021/08/23 01:29:40;;;;;;;2.65;2.05;;;;;;;18.23;78.25;96006.75;5030724;28;20705;-85
2021/08/23 01:32:13;;;;;;;2.58;2.08;;;;;;;18.29;78.21;96000.66;5030922;28;20392;-85
2021/08/23 01:34:41;;;;;;;3.20;1.88;;;;;;;18.37;78.07;96002.19;5031289;28;20214;-86
2021/08/23 01:37:07;;;;;;;2.58;2.20;;;;;;;18.35;77.72;96002.41;5032026;28;20227;-84
2021/08/23 01:39:35;;;;;;;3.10;2.20;;;;;;;18.35;77.69;96001.63;5034723;28;20206;-82
2021/08/23 01:42:01;;;;;;;2.88;1.75;;;;;;;18.35;77.46;96006.81;5035925;28;20612;-84
2021/08/23 01:44:28;;;;;;;2.33;2.10;;;;;;;18.39;77.32;96008.00;5034377;28;20222;-82
2021/08/23 01:46:54;;;;;;;2.20;2.00;;;;;;;18.40;77.53;96004.38;5035284;28;20886;-85
2021/08/23 01:49:22;;;;;;;1.98;1.88;;;;;;;18.35;77.73;96005.03;5034879;28;20202;-87
2021/08/23 01:51:49;;;;;;;2.83;1.88;;;;;;;18.28;77.53;96012.88;5035499;28;20206;-84
2021/08/23 01:54:15;;;;;;;4.38;2.15;;;;;;;18.28;77.22;96006.88;5034945;28;20228;-83
2021/08/23 01:56:43;;;;;;;5.13;2.15;;;;;;;18.23;76.85;96006.75;5034805;28;20546;-84
2021/08/23 01:59:09;;;;;;;2.28;1.90;;;;;;;18.29;77.08;96003.25;5035246;28;20201;-84
2021/08/23 02:01:36;;;;;;;1.98;1.80;;;;;;;18.28;77.16;96010.28;5035364;28;20202;-82
2021/08/23 02:04:02;;;;;;;2.38;1.88;;;;;;;18.25;77.78;96005.53;5034416;28;20222;-84
2021/08/23 02:06:30;;;;;;;3.05;1.85;;;;;;;18.27;77.32;96006.09;5033867;28;20233;-84
2021/08/23 02:08:57;;;;;;;4.47;2.20;;;;;;;18.26;77.18;96008.94;5034397;28;20693;-83
2021/08/23 02:11:24;;;;;;;3.03;1.92;;;;;;;18.26;76.57;96012.34;5034591;28;20202;-83
2021/08/23 02:13:51;;;;;;;1.98;1.75;;;;;;;18.19;76.92;96006.38;5034412;28;20202;-86
2021/08/23 02:16:17;;;;;;;2.20;2.00;;;;;;;18.25;77.00;96010.72;5034850;28;20207;-87
2021/08/23 02:18:44;;;;;;;3.05;2.03;;;;;;;18.22;76.77;96008.53;5035099;28;20194;-85
2021/08/23 02:21:10;;;;;;;2.20;2.00;;;;;;;18.22;76.46;96011.16;5034697;28;20208;-85
2021/08/23 02:23:38;;;;;;;3.72;2.15;;;;;;;18.24;76.56;96016.16;5034017;28;20573;-85
2021/08/23 02:26:05;;;;;;;2.22;1.90;;;;;;;18.26;76.33;96014.13;5034680;28;20752;-84
2021/08/23 02:28:31;;;;;;;2.85;2.10;;;;;;;18.27;76.26;96016.53;5034666;28;20887;-86
2021/08/23 02:30:58;;;;;;;2.15;1.95;;;;;;;18.26;76.80;96020.16;5034384;28;20205;-86
2021/08/23 02:33:24;;;;;;;2.45;1.98;;;;;;;18.26;76.20;96016.75;5033960;28;20213;-85
2021/08/23 02:35:51;;;;;;;2.35;2.15;;;;;;;18.26;76.42;96014.13;5034072;28;20218;-84
2021/08/23 02:38:17;;;;;;;2.53;1.98;;;;;;;18.22;76.71;96013.75;5034025;28;20205;-86
2021/08/23 02:40:45;;;;;;;2.15;1.85;;;;;;;18.18;76.81;96017.81;5034184;28;20198;-83
2021/08/23 02:43:12;;;;;;;3.53;1.85;;;;;;;18.19;76.90;96008.97;5033840;28;20205;-83
2021/08/23 02:45:38;;;;;;;2.33;1.90;;;;;;;18.20;76.81;96015.78;5033762;28;20694;-83
2021/08/23 02:48:05;;;;;;;2.15;1.73;;;;;;;18.16;77.05;96006.00;5034114;28;20205;-86
2021/08/23 02:50:32;;;;;;;2.50;1.88;;;;;;;18.13;77.36;96007.22;5033078;28;20229;-86
2021/08/23 02:52:58;;;;;;;2.15;1.95;;;;;;;18.07;77.30;96015.09;5034127;28;20221;-85
2021/08/23 02:55:25;;;;;;;2.25;1.85;;;;;;;18.09;77.45;96010.47;5034679;28;20222;-86
2021/08/23 02:57:53;;;;;;;1.75;1.65;;;;;;;18.02;77.86;96010.50;5033791;28;20202;-85
2021/08/23 03:00:19;;;;;;;2.40;1.80;;;;;;;18.00;78.34;96009.13;5034150;28;20202;-85
2021/08/23 03:02:45;;;;;;;3.80;1.83;;;;;;;18.00;77.91;96007.31;5034272;28;20205;-85
2021/08/23 03:05:12;;;;;;;3.03;1.95;;;;;;;18.04;78.24;96002.50;5033083;28;20230;-85
2021/08/23 03:07:39;;;;;;;2.22;1.92;;;;;;;17.98;77.61;96006.72;5034060;28;20554;-86
2021/08/23 03:10:06;;;;;;;2.03;1.65;;;;;;;17.96;77.99;96003.53;5033318;28;20202;-86
2021/08/23 03:12:33;;;;;;;2.72;1.90;;;;;;;17.92;77.73;96010.97;5033395;28;20202;-85
2021/08/23 03:15:01;;;;;;;2.65;2.13;;;;;;;17.91;77.74;95998.16;5033039;28;20217;-86
2021/08/23 03:17:27;;;;;;;2.30;1.95;;;;;;;17.90;77.60;96001.75;5033488;28;20214;-86
2021/08/23 03:19:54;;;;;;;2.20;1.95;;;;;;;17.91;77.27;96000.75;5033897;28;20202;-85
2021/08/23 03:22:20;;;;;;;2.15;1.95;;;;;;;17.94;77.85;95997.72;5033722;28;20707;-84
2021/08/23 03:24:47;;;;;;;4.03;2.03;;;;;;;17.97;77.62;95999.94;5032624;28;20226;-83
2021/08/23 03:27:13;;;;;;;2.05;1.80;;;;;;;18.02;78.08;96000.09;5033373;28;20198;-84
2021/08/23 03:29:40;;;;;;;1.80;1.70;;;;;;;18.05;76.88;96004.88;5032767;28;20202;-83
2021/08/23 03:32:09;;;;;;;1.90;1.70;;;;;;;18.06;76.79;96003.06;5032972;28;20202;-84
2021/08/23 03:34:35;;;;;;;3.50;2.00;;;;;;;18.07;76.66;95999.47;5032508;28;20224;-82
2021/08/23 03:37:02;;;;;;;2.78;1.85;;;;;;;18.05;77.10;96004.88;5032612;28;20706;-82
2021/08/23 03:39:28;;;;;;;3.42;1.73;;;;;;;18.09;77.45;96013.09;5032872;28;20209;-83
2021/08/23 03:41:55;;;;;;;3.83;1.80;;;;;;;18.06;77.43;95996.06;5032784;28;20206;-86
2021/08/23 03:44:22;;;;;;;2.20;2.10;;;;;;;18.07;77.47;96002.88;5032657;28;20218;-85
2021/08/23 03:46:48;;;;;;;3.15;2.03;;;;;;;18.08;77.24;96009.69;5032789;28;20209;-84
2021/08/23 03:49:16;;;;;;;2.33;1.90;;;;;;;18.00;77.38;96011.72;5032986;28;20214;-86
2021/08/23 03:51:42;;;;;;;1.98;1.70;;;;;;;17.99;77.58;96005.72;5032284;28;20212;-87
2021/08/23 03:54:09;;;;;;;2.00;1.88;;;;;;;18.03;77.55;96006.09;5031466;28;20233;-87
2021/08/23 03:56:35;;;;;;;2.25;1.95;;;;;;;18.04;77.60;96008.50;5021080;28;20221;-87
2021/08/23 03:59:02;;;;;;;2.00;1.80;;;;;;;18.01;77.17;96013.34;5032663;28;20210;-85
2021/08/23 04:01:28;;;;;;;2.67;1.75;;;;;;;18.02;77.68;96014.94;5031452;28;20208;-87
2021/08/23 04:03:55;;;;;;;2.53;1.88;;;;;;;18.06;77.49;96014.31;5031552;28;20206;-85
2021/08/23 04:06:23;;;;;;;2.15;1.95;;;;;;;18.05;78.31;96007.50;5031630;28;20296;-87
2021/08/23 04:08:50;;;;;;;2.03;1.90;;;;;;;18.06;77.81;96008.28;5032624;28;20680;-82
2021/08/23 04:11:17;;;;;;;2.83;2.00;;;;;;;18.05;77.72;96017.13;5032733;28;20204;-85
2021/08/23 04:13:43;;;;;;;2.33;1.70;;;;;;;18.02;77.59;96010.50;5032662;28;20700;-86
2021/08/23 04:16:11;;;;;;;4.55;2.10;;;;;;;18.02;77.77;96009.72;5033094;28;20216;-85
2021/08/23 04:18:37;;;;;;;2.10;1.90;;;;;;;17.99;77.81;96015.34;5033380;28;20212;-85
2021/08/23 04:21:04;;;;;;;2.00;1.80;;;;;;;17.95;78.04;96012.38;5033581;28;20212;-81
2021/08/23 04:23:32;;;;;;;2.95;2.10;;;;;;;17.96;78.09;96008.75;5033125;28;20721;-83
2021/08/23 04:25:59;;;;;;;1.90;1.80;;;;;;;17.96;78.67;96003.53;5032199;28;20705;-82
2021/08/23 04:28:25;;;;;;;1.98;1.88;;;;;;;17.94;78.77;96003.75;5033235;28;20225;-83
2021/08/23 04:30:52;;;;;;;2.30;2.00;;;;;;;17.92;78.73;96005.75;5032850;28;20202;-85
2021/08/23 04:33:18;;;;;;;2.17;1.80;;;;;;;17.97;78.06;96002.53;5031902;28;20260;-83
2021/08/23 04:35:45;;;;;;;1.95;1.85;;;;;;;17.96;78.71;96003.53;5031785;28;20233;-81
2021/08/23 04:38:12;;;;;;;3.25;2.08;;;;;;;17.98;78.54;95996.31;5032033;28;20212;-82
2021/08/23 04:40:40;;;;;;;2.00;1.80;;;;;;;17.99;77.81;96010.13;5031656;28;20861;-83
2021/08/23 04:43:07;;;;;;;3.10;2.00;;;;;;;18.01;77.68;96006.31;5031956;28;20226;-81
2021/08/23 04:45:34;;;;;;;3.03;1.77;;;;;;;18.03;77.56;96004.28;5030919;28;20213;-82
2021/08/23 04:48:00;;;;;;;2.42;1.80;;;;;;;18.00;77.78;96009.94;5031877;28;20198;-82
2021/08/23 04:50:27;;;;;;;1.92;1.77;;;;;;;17.99;77.42;96012.75;5031928;28;20205;-80
2021/08/23 04:52:53;;;;;;;2.58;2.03;;;;;;;17.98;77.46;96011.16;5019274;28;20198;-83
2021/08/23 04:55:20;;;;;;;3.05;2.00;;;;;;;17.99;77.23;96010.13;5034436;28;20218;-82
2021/08/23 04:57:48;;;;;;;6.40;2.47;;;;;;;18.03;76.67;96006.91;5021724;28;20835;-82
2021/08/23 05:00:15;;;;;;;14.60;13.10;;;;;;;18.06;77.27;96013.50;5012676;28;20670;-82
2021/08/23 05:02:41;;;;;;;10.88;9.50;;;;;;;18.06;78.38;96014.31;5019815;28;20205;-81
2021/08/23 05:05:08;;;;;;;4.40;3.70;;;;;;;18.05;77.96;96017.91;5032782;28;20237;-82
2021/08/23 05:07:35;;;;;;;2.22;2.03;;;;;;;18.09;77.11;96013.09;5017930;28;20209;-82
2021/08/23 05:10:01;;;;;;;3.17;2.00;;;;;;;18.12;76.61;96010.81;5048346;28;20206;-81
2021/08/23 05:12:28;;;;;;;2.97;1.92;;;;;;;18.17;77.07;96018.00;5046922;28;20202;-83
2021/08/23 05:14:56;;;;;;;5.03;2.50;;;;;;;18.17;77.39;96021.41;5057053;28;20225;-83
2021/08/23 05:17:22;;;;;;;2.20;2.00;;;;;;;18.19;77.71;96022.00;5056722;28;20273;-83
2021/08/23 05:19:49;;;;;;;4.07;2.10;;;;;;;18.26;77.02;96017.53;5056403;28;20244;-81
2021/08/23 05:22:17;;;;;;;3.38;2.33;;;;;;;18.29;77.24;96022.31;5017278;28;20725;-81
2021/08/23 05:24:43;;;;;;;3.95;2.00;;;;;;;18.29;76.82;96019.69;5017197;28;20227;-84
2021/08/23 05:27:10;;;;;;;3.15;2.10;;;;;;;18.28;76.75;96015.50;5017534;28;20222;-86
2021/08/23 05:29:36;;;;;;;2.15;1.77;;;;;;;18.29;76.67;96017.09;5017312;28;20202;-81
2021/08/23 05:32:05;;;;;;;3.33;2.10;;;;;;;18.29;75.95;96018.91;5035844;28;20205;-83
2021/08/23 05:34:32;;;;;;;2.85;2.08;;;;;;;18.30;75.90;96023.09;5036509;28;20605;-81
2021/08/23 05:36:58;;;;;;;2.03;1.83;;;;;;;18.35;76.33;96025.06;5037264;28;20194;-81
2021/08/23 05:39:25;;;;;;;5.82;2.28;;;;;;;18.36;76.81;96029.28;5036992;28;20194;-82
2021/08/23 05:41:51;;;;;;;3.13;1.80;;;;;;;18.40;76.55;96031.25;5055934;28;20205;-82
2021/08/23 05:44:18;;;;;;;4.63;2.03;;;;;;;18.39;76.20;96032.25;5057049;28;20236;-81
2021/08/23 05:46:44;;;;;;;3.05;1.90;;;;;;;18.38;76.57;96027.25;5056155;28;20221;-81
2021/08/23 05:49:12;;;;;;;2.08;1.83;;;;;;;18.34;76.22;96032.09;5040048;28;20206;-82
2021/08/23 05:51:39;;;;;;;2.05;1.95;;;;;;;18.40;76.93;96033.88;5036027;28;20198;-83
2021/08/23 05:54:05;;;;;;;2.75;1.80;;;;;;;18.42;76.43;96020.63;5052044;28;20225;-82
2021/08/23 05:56:32;;;;;;;2.33;2.00;;;;;;;18.42;76.59;96026.63;5056968;28;20202;-84
2021/08/23 05:58:58;;;;;;;2.45;1.90;;;;;;;18.32;76.17;96023.69;5056904;28;20296;-82
2021/08/23 06:01:27;;;;;;;2.67;1.90;;;;;;;18.36;75.89;96030.09;5056972;28;20212;-81
2021/08/23 06:03:56;;;;;;;2.58;1.90;;;;;;;18.40;76.32;96020.81;5023551;28;20203;-83
2021/08/23 06:06:23;;;;;;;2.10;1.90;;;;;;;18.42;76.28;96018.81;5034377;28;20240;-86
2021/08/23 06:08:50;;;;;;;5.53;2.00;;;;;;;18.38;76.03;96015.03;5036182;28;20268;-85
2021/08/23 06:11:17;;;;;;;2.65;2.10;;;;;;;18.32;75.89;96017.69;5036491;28;20542;-80
2021/08/23 06:13:43;;;;;;;2.35;1.90;;;;;;;18.40;76.60;96023.44;5036701;28;20296;-84
2021/08/23 06:16:10;;;;;;;3.88;2.25;;;;;;;18.46;76.93;96027.81;5022579;28;20207;-82
2021/08/23 06:18:38;;;;;;;2.20;1.88;;;;;;;18.53;76.90;96022.50;5017108;28;20209;-85
2021/08/23 06:21:05;;;;;;;1.92;1.80;;;;;;;18.57;77.17;96028.88;5016593;28;20312;-84
2021/08/23 06:23:32;;;;;;;2.20;2.00;;;;;;;18.55;76.50;96028.31;5015971;28;20191;-81
2021/08/23 06:25:59;;;;;;;2.70;1.98;;;;;;;18.56;76.74;96028.09;5015976;28;20222;-81
2021/08/23 06:28:26;;;;;;;2.15;1.77;;;;;;;18.60;76.71;96021.47;5016942;28;20199;-85
2021/08/23 06:30:55;;;;;;;2.60;1.98;;;;;;;18.60;76.51;96026.69;5017014;28;20570;-86
2021/08/23 06:33:21;;;;;;;3.30;2.00;;;;;;;18.68;76.45;96025.59;5036499;28;20198;-86
2021/08/23 06:35:48;;;;;;;2.20;2.00;;;;;;;18.67;76.68;96028.41;5035484;28;20222;-84
2021/08/23 06:38:14;;;;;;;2.88;2.00;;;;;;;18.74;76.52;96024.72;5033726;28;20205;-83
2021/08/23 06:40:42;;;;;;;2.75;2.10;;;;;;;18.71;76.08;96024.38;5036669;28;20202;-82
2021/08/23 06:43:09;;;;;;;1.80;1.70;;;;;;;18.81;75.11;96029.91;5036465;28;20206;-83
2021/08/23 06:45:35;;;;;;;2.10;1.90;;;;;;;18.78;75.04;96028.50;5041116;28;20224;-81
2021/08/23 06:48:01;;;;;;;2.20;2.00;;;;;;;18.77;74.84;96026.13;5057524;28;20213;-82
2021/08/23 06:50:28;;;;;;;2.92;1.98;;;;;;;18.86;75.42;96025.59;5055623;28;20220;-83
2021/08/23 06:52:57;;;;;;;1.95;1.80;;;;;;;18.90;74.69;96020.75;5054641;28;20217;-82
2021/08/23 06:55:26;;;;;;;2.70;2.20;;;;;;;18.86;74.54;96025.59;5056609;28;20249;-83
2021/08/23 06:57:57;;;;;;;3.45;2.08;;;;;;;19.00;74.72;96028.88;5048035;28;20203;-83
2021/08/23 07:00:26;;;;;;;3.08;1.88;;;;;;;19.02;73.32;96023.44;5016332;28;20210;-81
2021/08/23 07:02:54;;;;;;;1.92;1.83;;;;;;;19.09;73.42;96016.31;5024290;28;20662;-81
2021/08/23 07:05:21;;;;;;;2.33;1.67;;;;;;;19.07;72.99;96023.56;5036924;28;20217;-80
2021/08/23 07:07:48;;;;;;;2.00;1.80;;;;;;;19.07;72.42;96021.75;5044564;28;20225;-81
2021/08/23 07:10:15;;;;;;;1.75;1.50;;;;;;;19.22;72.11;96024.81;5057502;28;20201;-83
2021/08/23 07:12:42;;;;;;;2.08;1.70;;;;;;;19.35;73.19;96018.63;5056877;28;20206;-83
2021/08/23 07:15:11;;;;;;;2.40;1.90;;;;;;;19.48;72.58;96022.88;5056058;28;20229;-82
2021/08/23 07:17:37;;;;;;;2.25;2.00;;;;;;;19.39;72.24;96016.38;5056324;28;20209;-83
2021/08/23 07:20:06;;;;;;;2.83;2.00;;;;;;;19.41;72.92;96020.34;5055435;28;20201;-82
2021/08/23 07:22:32;;;;;;;2.15;1.95;;;;;;;19.47;73.29;96024.69;5056597;28;20201;-82
2021/08/23 07:24:59;;;;;;;2.08;1.80;;;;;;;19.34;72.39;96019.63;5056426;28;20244;-86
2021/08/23 07:27:25;;;;;;;2.80;2.15;;;;;;;19.22;72.75;96024.81;5055899;28;20244;-86
2021/08/23 07:29:52;;;;;;;3.05;2.17;;;;;;;19.10;72.92;96025.75;5056329;28;20247;-87
2021/08/23 07:32:20;;;;;;;2.17;1.95;;;;;;;19.00;72.45;96028.88;5044842;28;20205;-86
2021/08/23 07:34:46;;;;;;;2.25;2.03;;;;;;;18.97;71.95;96024.91;5036524;28;20229;-87
2021/08/23 07:37:14;;;;;;;3.28;1.90;;;;;;;19.08;72.39;96025.97;5038064;28;20201;-86
2021/08/23 07:39:40;;;;;;;3.63;2.00;;;;;;;19.15;72.30;96018.06;5055364;28;20197;-86
2021/08/23 07:42:15;;;;;;;3.10;2.10;;;;;;;19.19;73.07;96027.84;5028844;28;20214;-86
2021/08/23 07:44:42;;;;;;;2.30;2.10;;;;;;;19.28;73.93;96023.91;5035526;28;20261;-85
2021/08/23 07:47:09;;;;;;;1.92;1.83;;;;;;;19.31;74.56;96033.13;5040378;28;20268;-86
2021/08/23 07:49:37;;;;;;;2.53;2.20;;;;;;;19.19;75.76;96035.69;5055835;28;20213;-85
2021/08/23 07:52:04;;;;;;;2.47;2.28;;;;;;;19.24;77.06;96029.81;5055248;28;20209;-87
2021/08/23 07:54:32;;;;;;;4.80;2.20;;;;;;;19.23;76.08;96028.22;5055555;28;20225;-86
2021/08/23 07:56:59;;;;;;;2.97;2.20;;;;;;;19.36;75.62;96028.06;5055019;28;20213;-86
2021/08/23 07:59:25;;;;;;;2.45;2.28;;;;;;;19.57;74.91;96027.59;5055494;28;20793;-83
2021/08/23 08:01:51;;;;;;;3.70;2.00;;;;;;;19.79;73.67;96029.72;5055798;28;20205;-82
2021/08/23 08:04:18;;;;;;;3.47;2.35;;;;;;;19.85;74.41;96039.25;5054744;28;20222;-85
2021/08/23 08:06:46;;;;;;;2.50;2.13;;;;;;;19.74;74.64;96037.41;5039995;28;20226;-82
2021/08/23 08:09:12;;;;;;;2.30;2.10;;;;;;;19.71;73.55;96035.25;5035341;28;20206;-85
2021/08/23 08:11:39;;;;;;;3.15;2.30;;;;;;;19.63;74.13;96031.13;5035088;28;20226;-83
2021/08/23 08:14:06;;;;;;;4.53;2.17;;;;;;;19.50;74.17;96031.31;5034077;28;20257;-84
2021/08/23 08:16:32;;;;;;;4.00;2.78;;;;;;;19.26;76.05;96036.38;5029531;28;20220;-84
2021/08/23 08:18:58;;;;;;;2.30;1.90;;;;;;;19.21;74.74;96030.25;5014843;28;20214;-81
2021/08/23 08:21:25;;;;;;;3.13;2.13;;;;;;;19.25;75.69;96029.56;5015287;28;20214;-83
2021/08/23 08:23:54;;;;;;;4.35;2.05;;;;;;;19.16;75.96;96030.91;5014137;28;20205;-82
2021/08/23 08:26:20;;;;;;;2.15;1.70;;;;;;;19.19;76.29;96035.69;5014612;28;20219;-84
2021/08/23 08:28:47;;;;;;;2.20;2.00;;;;;;;19.33;75.89;96038.94;5014946;28;20210;-86
2021/08/23 08:31:15;;;;;;;2.55;2.17;;;;;;;19.26;75.21;96035.59;5016426;28;20213;-86
2021/08/23 08:33:41;;;;;;;4.18;2.28;;;;;;;19.27;75.12;96032.75;5034459;28;20201;-82
2021/08/23 08:36:10;;;;;;;3.08;2.15;;;;;;;19.29;76.02;96038.56;5048377;28;20225;-83
2021/08/23 08:38:37;;;;;;;2.22;2.00;;;;;;;19.54;75.79;96037.69;5053585;28;20201;-85
2021/08/23 08:41:04;;;;;;;2.95;2.20;;;;;;;19.94;73.21;96030.91;5053946;28;20197;-82
2021/08/23 08:43:34;;;;;;;2.00;1.90;;;;;;;20.15;73.37;96028.78;5053624;28;20205;-83
2021/08/23 08:46:01;;;;;;;2.22;1.90;;;;;;;19.91;72.80;96033.94;5053634;28;20221;-85
2021/08/23 08:48:33;;;;;;;2.10;1.90;;;;;;;19.86;73.34;96033.00;5054890;28;20205;-82
2021/08/23 08:51:02;;;;;;;3.80;2.33;;;;;;;19.83;73.38;96036.06;5055190;28;20396;-85
2021/08/23 08:53:29;;;;;;;3.53;2.45;;;;;;;19.76;74.92;96033.56;5053599;28;20223;-85
2021/08/23 08:55:55;;;;;;;2.15;2.00;;;;;;;19.79;73.63;96030.53;5053558;28;20217;-83
2021/08/23 08:58:26;;;;;;;2.42;2.22;;;;;;;19.81;71.90;96038.13;5053601;28;20681;-84
2021/08/23 09:00:54;;;;;;;3.53;2.08;;;;;;;19.95;71.38;96021.22;5053945;28;20577;-85
2021/08/23 09:03:26;;;;;;;2.30;2.10;;;;;;;19.97;70.32;96025.22;5052770;28;20217;-85
2021/08/23 09:06:01;;;;;;;3.17;2.15;;;;;;;20.12;70.01;96016.94;5045596;28;20226;-85
2021/08/23 09:08:29;;;;;;;2.60;1.80;;;;;;;20.26;69.41;96026.16;5034096;28;20265;-83
2021/08/23 09:10:56;;;;;;;2.70;2.00;;;;;;;20.29;69.57;96020.47;5034295;28;20374;-82
2021/08/23 09:13:26;;;;;;;1.83;1.70;;;;;;;20.27;69.80;96022.53;5033866;28;20198;-85
2021/08/23 09:15:54;;;;;;;2.17;1.98;;;;;;;20.09;70.21;96030.47;5022539;28;20231;-86
2021/08/23 09:18:22;;;;;;;2.40;2.20;;;;;;;20.10;69.79;96026.03;5013978;28;20199;-81
2021/08/23 09:20:57;;;;;;;2.03;1.90;;;;;;;20.09;69.82;96033.06;5014070;28;20202;-83
2021/08/23 09:23:34;;;;;;;2.85;2.30;;;;;;;20.18;71.32;96025.72;5013839;28;20194;-82
2021/08/23 09:26:07;;;;;;;2.30;2.10;;;;;;;20.13;68.75;96025.59;5014232;28;20219;-82
2021/08/23 09:28:36;;;;;;;2.05;1.80;;;;;;;20.11;69.47;96041.50;5033844;28;20209;-85
2021/08/23 09:31:03;;;;;;;2.22;1.98;;;;;;;20.00;69.36;96030.00;5034784;28;20198;-86
2021/08/23 09:33:30;;;;;;;4.15;2.17;;;;;;;20.04;71.07;96034.75;5014980;28;20207;-86
2021/08/23 09:35:56;;;;;;;3.25;1.98;;;;;;;20.06;72.65;96032.72;5013965;28;20233;-86
2021/08/23 09:38:23;;;;;;;3.22;2.03;;;;;;;20.08;72.71;96030.69;5014048;28;20663;-85
2021/08/23 09:40:51;;;;;;;2.40;2.00;;;;;;;20.13;72.76;96028.19;5013593;28;20230;-86
2021/08/23 09:43:18;;;;;;;3.15;2.20;;;;;;;20.04;74.69;96035.56;5013527;28;20202;-83
2021/08/23 09:45:48;;;;;;;2.35;2.15;;;;;;;19.96;74.14;96033.28;5012820;28;20218;-86
2021/08/23 09:48:16;;;;;;;2.30;2.10;;;;;;;20.07;73.55;96021.25;5013421;28;20474;-85
2021/08/23 09:50:45;;;;;;;3.55;2.40;;;;;;;20.01;72.41;96028.19;5013503;28;20289;-82
2021/08/23 09:53:13;;;;;;;3.08;2.10;;;;;;;20.10;73.13;96026.81;5013416;28;20235;-82
2021/08/23 09:55:41;;;;;;;1.80;1.70;;;;;;;20.11;71.80;96023.19;5013126;28;20227;-87
2021/08/23 09:58:09;;;;;;;3.85;1.58;;;;;;;20.04;70.13;96025.09;5013791;28;20230;-85
2021/08/23 10:00:37;;;;;;;1.70;1.60;;;;;;;19.95;70.16;96019.41;5016824;28;20199;-86
2021/08/23 10:03:13;;;;;;;1.52;1.40;;;;;;;20.02;70.18;96025.31;5030721;28;20194;-86
2021/08/23 10:05:42;;;;;;;3.00;2.03;;;;;;;20.34;70.51;96017.19;5022237;28;20226;-87
2021/08/23 10:08:08;;;;;;;1.70;1.60;;;;;;;20.82;69.15;96011.72;5024887;28;20277;-85
2021/08/23 10:11:18;;;;;;;1.50;1.40;;;;;;;21.13;64.46;96017.59;5015706;28;20191;-85
2021/08/23 10:13:46;;;;;;;1.88;1.70;;;;;;;21.10;65.43;96028.53;5011577;28;20641;-85
2021/08/23 10:16:13;;;;;;;1.55;1.45;;;;;;;20.97;65.37;96019.91;5026014;28;20241;-81
2021/08/23 10:18:41;;;;;;;1.83;1.70;;;;;;;20.98;67.38;96013.63;5056148;28;20371;-85
2021/08/23 10:21:09;;;;;;;2.33;1.60;;;;;;;21.12;67.26;96014.19;5020584;28;20199;-84
2021/08/23 10:23:37;;;;;;;1.50;1.40;;;;;;;21.32;66.31;96011.19;5015010;28;20205;-84
2021/08/23 10:26:03;;;;;;;2.40;1.50;;;;;;;21.50;64.94;96005.78;5015085;28;20226;-83
2021/08/23 10:28:36;;;;;;;1.60;1.50;;;;;;;21.44;63.85;96000.66;5015108;28;20219;-83
2021/08/23 10:31:07;;;;;;;1.55;1.33;;;;;;;21.26;63.49;96015.53;5015267;28;20226;-84
2021/08/23 10:33:36;;;;;;;3.30;1.40;;;;;;;21.14;64.80;96000.88;5015228;28;20203;-85
2021/08/23 10:36:07;;;;;;;2.33;1.35;;;;;;;21.43;65.13;96007.72;5036881;28;20411;-84
2021/08/23 10:38:34;;;;;;;2.13;1.50;;;;;;;21.28;62.57;96003.00;5055594;28;20205;-84
2021/08/23 10:41:08;;;;;;;1.70;1.33;;;;;;;21.60;63.16;95999.91;5054971;28;20210;-85
2021/08/23 10:43:44;;;;;;;1.70;1.60;;;;;;;21.97;62.93;95995.03;5054160;28;20256;-85
2021/08/23 10:46:26;;;;;;;1.50;1.40;;;;;;;22.22;60.04;96000.72;5053290;28;20232;-85
2021/08/23 10:48:54;;;;;;;2.47;1.80;;;;;;;22.29;59.70;95993.50;5054820;28;20228;-82
2021/08/23 10:51:30;;;;;;;2.65;1.70;;;;;;;22.26;59.94;95986.09;5036980;28;20669;-83
2021/08/23 10:53:57;;;;;;;2.22;1.80;;;;;;;22.30;60.28;95991.66;5017775;28;20589;-85
2021/08/23 10:56:33;;;;;;;2.42;1.90;;;;;;;22.27;60.00;95979.00;5020603;28;20596;-82
2021/08/23 10:59:11;;;;;;;4.20;1.80;;;;;;;22.25;60.08;95975.84;5034777;28;20224;-85
2021/08/23 11:01:37;;;;;;;2.67;1.67;;;;;;;22.12;60.05;95978.78;5044686;28;20211;-86
2021/08/23 11:04:05;;;;;;;1.70;1.60;;;;;;;22.03;60.58;95970.53;5052908;28;20205;-84
2021/08/23 11:06:34;;;;;;;1.70;1.60;;;;;;;21.75;60.93;95973.16;5032910;28;20578;-87
2021/08/23 11:09:12;;;;;;;1.60;1.50;;;;;;;21.43;62.81;95972.88;5036451;28;20221;-86
2021/08/23 11:11:41;;;;;;;2.13;1.85;;;;;;;21.47;62.57;95974.00;5052689;28;20204;-86
2021/08/23 11:17:05;;;;;;;3.70;1.90;;;;;;;21.57;62.40;95966.31;5055166;28;20209;-86
2021/08/23 11:19:38;;;;;;;2.17;1.73;;;;;;;21.48;62.53;95959.88;5054329;28;20197;-83
2021/08/23 11:22:06;;;;;;;2.88;2.08;;;;;;;21.60;62.60;95958.78;5055463;28;20202;-86
2021/08/23 11:24:39;;;;;;;3.25;1.95;;;;;;;21.80;60.64;95954.91;5054905;28;20226;-85
2021/08/23 11:27:17;;;;;;;4.93;2.00;;;;;;;21.74;61.11;95948.81;5053865;28;20236;-84
2021/08/23 11:30:03;;;;;;;;;;;;;;;;;;;;;
2021/08/23 11:32:31;;;;;;;5.40;2.10;;;;;;;21.78;60.66;95965.63;5041825;28;21002;-87
2021/08/23 11:35:03;;;;;;;2.45;1.75;;;;;;;21.78;60.15;95955.13;5034590;28;20655;-82
2021/08/23 11:37:32;;;;;;;2.13;1.70;;;;;;;21.58;59.14;95966.06;5034543;28;20226;-85
2021/08/23 11:40:08;;;;;;;3.03;2.15;;;;;;;21.49;58.53;95964.88;5036404;28;20206;-84